Time;durP1;ratioP1;P1;durP2;ratioP2;P2;SDS_P1;SDS_P2;PMS_P1;PMS_P2;Temp;Humidity;BMP_temperature;BMP_pressure;BME280_temperature;BME280_humidity;BME280_pressure;Samples;Min_cycle;Max_cycle;Signal;HPM_P1;HPM_P2
2022/10/28 00:00:11;;;;;;;12.70;4.35;;;;;;;;;;5005804;28;20335;-68
2022/10/28 00:02:39;;;;;;;16.10;4.05;;;;;;;;;;5006687;28;20025;-68
2022/10/28 00:05:04;;;;;;;14.48;4.90;;;;;;;;;;5000413;28;20033;-68
2022/10/28 00:07:30;;;;;;;15.75;4.03;;;;;;;;;;5009715;28;20358;-69
2022/10/28 00:09:55;;;;;;;13.07;4.03;;;;;;;;;;5005913;28;20028;-68
2022/10/28 00:12:20;;;;;;;10.20;3.70;;;;;;;;;;5004767;28;20676;-67
2022/10/28 00:14:45;;;;;;;21.97;5.23;;;;;;;;;;5007272;28;20303;-67
2022/10/28 00:17:10;;;;;;;13.37;2.97;;;;;;;;;;5009995;28;20014;-67
2022/10/28 00:19:35;;;;;;;17.20;3.63;;;;;;;;;;5009390;28;20281;-68
2022/10/28 00:22:01;;;;;;;20.57;4.30;;;;;;;;;;5009716;28;20284;-68
2022/10/28 00:24:26;;;;;;;14.93;4.13;;;;;;;;;;5007363;28;20135;-67
2022/10/28 00:26:51;;;;;;;19.03;4.53;;;;;;;;;;5009345;28;20335;-67
2022/10/28 00:29:17;;;;;;;11.17;2.90;;;;;;;;;;5008480;28;20277;-67
2022/10/28 00:31:43;;;;;;;17.13;3.95;;;;;;;;;;5010184;28;20273;-68
2022/10/28 00:34:10;;;;;;;19.77;3.05;;;;;;;;;;5004927;28;20037;-67
2022/10/28 00:36:36;;;;;;;13.20;4.78;;;;;;;;;;5001214;28;20065;-67
2022/10/28 00:39:06;;;;;;;17.80;4.28;;;;;;;;;;5009099;28;20478;-67
2022/10/28 00:41:33;;;;;;;10.45;3.22;;;;;;;;;;5009407;28;20041;-68
2022/10/28 00:44:00;;;;;;;16.85;3.65;;;;;;;;;;5007683;28;20061;-68
2022/10/28 00:46:40;;;;;;;15.75;3.90;;;;;;;;;;5008522;28;20077;-67
2022/10/28 00:49:13;;;;;;;6.90;2.50;;;;;;;;;;5014389;28;20113;-67
2022/10/28 00:51:38;;;;;;;19.83;3.70;;;;;;;;;;5010703;28;20087;-68
2022/10/28 00:54:04;;;;;;;12.45;5.03;;;;;;;;;;5009980;28;20022;-68
2022/10/28 00:56:30;;;;;;;9.50;2.90;;;;;;;;;;5009631;28;20022;-68
2022/10/28 00:58:58;;;;;;;17.13;3.90;;;;;;;;;;5011772;28;20423;-68
2022/10/28 01:01:23;;;;;;;11.13;3.38;;;;;;;;;;5010874;28;20034;-68
2022/10/28 01:03:48;;;;;;;21.95;4.25;;;;;;;;;;5006336;28;20033;-67
2022/10/28 01:06:14;;;;;;;12.50;3.47;;;;;;;;;;5012692;28;20389;-69
2022/10/28 01:08:39;;;;;;;11.73;3.58;;;;;;;;;;5009839;28;20490;-67
2022/10/28 01:11:04;;;;;;;11.80;3.50;;;;;;;;;;5008999;28;20049;-68
2022/10/28 01:13:35;;;;;;;14.93;3.05;;;;;;;;;;5008748;28;20041;-67
2022/10/28 01:16:20;;;;;;;16.63;3.72;;;;;;;;;;5013022;28;20538;-67
2022/10/28 01:18:56;;;;;;;16.05;3.20;;;;;;;;;;5009888;28;20033;-68
2022/10/28 01:21:27;;;;;;;11.25;3.67;;;;;;;;;;5008097;28;20045;-67
2022/10/28 01:24:00;;;;;;;12.80;4.15;;;;;;;;;;5007724;28;20204;-68
2022/10/28 01:26:35;;;;;;;12.82;4.68;;;;;;;;;;5008807;28;20018;-67
2022/10/28 01:29:19;;;;;;;19.70;3.65;;;;;;;;;;5007680;28;20017;-68
2022/10/28 01:31:55;;;;;;;16.67;4.22;;;;;;;;;;5010306;28;20033;-67
2022/10/28 01:34:26;;;;;;;13.75;3.80;;;;;;;;;;5012217;28;20052;-68
2022/10/28 01:36:57;;;;;;;20.42;3.58;;;;;;;;;;5012054;28;20017;-67
2022/10/28 01:39:41;;;;;;;16.63;4.95;;;;;;;;;;5009655;28;20246;-67
2022/10/28 01:42:15;;;;;;;7.88;3.42;;;;;;;;;;5005079;28;20053;-67
2022/10/28 01:44:46;;;;;;;15.27;3.25;;;;;;;;;;5011452;28;20026;-68
2022/10/28 01:47:32;;;;;;;19.33;3.55;;;;;;;;;;5011474;28;20021;-67
2022/10/28 01:50:03;;;;;;;16.67;2.75;;;;;;;;;;4958347;28;20037;-67
2022/10/28 01:52:30;;;;;;;14.55;3.15;;;;;;;;;;4994524;28;20025;-67
2022/10/28 01:55:07;;;;;;;9.80;2.92;;;;;;;;;;5008003;28;20445;-68
2022/10/28 01:57:33;;;;;;;12.25;3.58;;;;;;;;;;5009388;28;20049;-67
2022/10/28 02:00:00;;;;;;;10.30;3.58;;;;;;;;;;5010649;28;20021;-67
2022/10/28 02:02:25;;;;;;;17.05;2.90;;;;;;;;;;5011371;28;20029;-68
2022/10/28 02:04:50;;;;;;;22.40;3.88;;;;;;;;;;5011430;28;20030;-67
2022/10/28 02:07:16;;;;;;;15.03;3.40;;;;;;;;;;5010602;28;20060;-67
2022/10/28 02:09:41;;;;;;;20.65;3.85;;;;;;;;;;5005557;28;20376;-67
2022/10/28 02:12:18;;;;;;;8.57;3.45;;;;;;;;;;5009633;28;20030;-69
2022/10/28 02:15:01;;;;;;;13.82;3.92;;;;;;;;;;5011079;28;20036;-67
2022/10/28 02:17:39;;;;;;;19.30;3.35;;;;;;;;;;5005596;28;20009;-67
2022/10/28 02:20:07;;;;;;;9.02;3.75;;;;;;;;;;5005804;28;20329;-66
2022/10/28 02:22:39;;;;;;;25.67;4.50;;;;;;;;;;5009164;28;20025;-66
2022/10/28 02:25:13;;;;;;;13.35;4.43;;;;;;;;;;5014255;28;20029;-68
2022/10/28 02:27:55;;;;;;;16.60;3.28;;;;;;;;;;5006037;28;20030;-70
2022/10/28 02:30:22;;;;;;;13.93;3.38;;;;;;;;;;5011890;28;20212;-66
2022/10/28 02:32:49;;;;;;;19.70;3.78;;;;;;;;;;5011451;28;20021;-66
2022/10/28 02:35:21;;;;;;;16.77;4.10;;;;;;;;;;5011685;28;20025;-66
2022/10/28 02:37:47;;;;;;;13.63;3.58;;;;;;;;;;5009735;28;20014;-66
2022/10/28 02:40:14;;;;;;;13.25;2.90;;;;;;;;;;5006818;28;20097;-66
2022/10/28 02:42:43;;;;;;;15.40;3.88;;;;;;;;;;5010166;28;20022;-67
2022/10/28 02:45:11;;;;;;;11.38;3.38;;;;;;;;;;5010518;28;20025;-67
2022/10/28 02:47:38;;;;;;;20.83;3.92;;;;;;;;;;5008942;28;20429;-67
2022/10/28 02:50:05;;;;;;;14.65;3.20;;;;;;;;;;5004183;28;20104;-68
2022/10/28 02:52:32;;;;;;;21.77;5.13;;;;;;;;;;5007159;28;20061;-70
2022/10/28 02:54:58;;;;;;;18.33;3.75;;;;;;;;;;5020325;28;20029;-66
2022/10/28 02:57:28;;;;;;;9.18;3.63;;;;;;;;;;5008894;28;20379;-69
2022/10/28 02:59:58;;;;;;;17.95;3.47;;;;;;;;;;5010405;28;20053;-69
2022/10/28 03:02:23;;;;;;;23.20;4.80;;;;;;;;;;5010517;28;20026;-66
2022/10/28 03:04:49;;;;;;;8.05;3.50;;;;;;;;;;5010413;28;20260;-66
2022/10/28 03:07:14;;;;;;;12.00;3.83;;;;;;;;;;5020630;28;20025;-67
2022/10/28 03:09:39;;;;;;;15.50;3.90;;;;;;;;;;5011137;28;20398;-68
2022/10/28 03:12:04;;;;;;;21.90;4.67;;;;;;;;;;5011719;28;20449;-67
2022/10/28 03:14:30;;;;;;;9.88;2.88;;;;;;;;;;4992910;28;20308;-67
2022/10/28 03:16:55;;;;;;;11.63;4.37;;;;;;;;;;5010819;28;20112;-66
2022/10/28 03:19:20;;;;;;;13.70;4.10;;;;;;;;;;5009355;28;20308;-68
2022/10/28 03:21:45;;;;;;;15.43;3.90;;;;;;;;;;5006243;28;20015;-66
2022/10/28 03:24:10;;;;;;;23.90;3.83;;;;;;;;;;5017302;28;20025;-68
2022/10/28 03:26:35;;;;;;;16.58;3.83;;;;;;;;;;5008945;28;20372;-66
2022/10/28 03:29:01;;;;;;;26.80;3.97;;;;;;;;;;5010211;28;20064;-69
2022/10/28 03:31:26;;;;;;;17.80;4.07;;;;;;;;;;5010008;28;20820;-66
2022/10/28 03:33:51;;;;;;;27.17;4.30;;;;;;;;;;5010026;28;20076;-68
2022/10/28 03:36:16;;;;;;;15.17;3.57;;;;;;;;;;5008293;28;20330;-66
2022/10/28 03:38:41;;;;;;;14.90;4.43;;;;;;;;;;5012290;28;20633;-67
2022/10/28 03:41:07;;;;;;;20.95;4.32;;;;;;;;;;5009159;28;20383;-65
2022/10/28 03:43:32;;;;;;;22.55;3.97;;;;;;;;;;5010202;28;20379;-67
2022/10/28 03:45:57;;;;;;;20.53;3.77;;;;;;;;;;5010644;28;20366;-66
2022/10/28 03:48:22;;;;;;;17.00;4.03;;;;;;;;;;5009839;28;20268;-66
2022/10/28 03:50:51;;;;;;;15.40;4.00;;;;;;;;;;5013473;28;20018;-68
2022/10/28 03:53:16;;;;;;;14.35;4.57;;;;;;;;;;5008027;28;20300;-67
2022/10/28 03:55:41;;;;;;;19.40;4.27;;;;;;;;;;5009144;28;20022;-66
2022/10/28 03:58:06;;;;;;;16.60;2.93;;;;;;;;;;5010106;28;20029;-66
2022/10/28 04:00:31;;;;;;;22.47;4.90;;;;;;;;;;5010037;28;20034;-66
2022/10/28 04:02:56;;;;;;;18.33;4.95;;;;;;;;;;5009533;28;20291;-68
2022/10/28 04:05:22;;;;;;;22.17;4.57;;;;;;;;;;5007776;28;20018;-66
2022/10/28 04:07:47;;;;;;;16.15;4.72;;;;;;;;;;5008074;28;20328;-69
2022/10/28 04:10:12;;;;;;;12.38;4.25;;;;;;;;;;5009141;28;20014;-67
2022/10/28 04:12:38;;;;;;;16.73;4.30;;;;;;;;;;5010026;28;20026;-66
2022/10/28 04:15:03;;;;;;;20.27;4.20;;;;;;;;;;5009308;28;20033;-66
2022/10/28 04:17:28;;;;;;;6.68;2.63;;;;;;;;;;5007934;28;20275;-68
2022/10/28 04:19:53;;;;;;;19.67;4.00;;;;;;;;;;5002145;28;20025;-66
2022/10/28 04:22:19;;;;;;;7.27;3.17;;;;;;;;;;5002822;28;20676;-66
2022/10/28 04:24:44;;;;;;;15.77;3.97;;;;;;;;;;5007536;28;20737;-66
2022/10/28 04:27:09;;;;;;;13.43;4.23;;;;;;;;;;5008494;28;20521;-70
2022/10/28 04:29:35;;;;;;;15.20;3.83;;;;;;;;;;5008881;28;20053;-66
2022/10/28 04:32:00;;;;;;;16.13;3.75;;;;;;;;;;5009664;28;20300;-66
2022/10/28 04:34:25;;;;;;;13.93;3.33;;;;;;;;;;5006801;28;20029;-69
2022/10/28 04:36:50;;;;;;;15.35;3.42;;;;;;;;;;5012000;28;20454;-66
2022/10/28 04:39:16;;;;;;;15.13;3.33;;;;;;;;;;5009183;28;20539;-66
2022/10/28 04:41:41;;;;;;;28.13;3.00;;;;;;;;;;5007645;28;20277;-66
2022/10/28 04:44:06;;;;;;;7.07;2.73;;;;;;;;;;5009998;28;20022;-66
2022/10/28 04:46:31;;;;;;;25.52;3.75;;;;;;;;;;5007252;28;20844;-66
2022/10/28 04:48:56;;;;;;;20.10;3.43;;;;;;;;;;5006672;28;20033;-66
2022/10/28 04:51:21;;;;;;;15.70;3.60;;;;;;;;;;5011959;28;20314;-68
2022/10/28 04:53:47;;;;;;;10.80;3.33;;;;;;;;;;5010056;28;20273;-66
2022/10/28 04:56:12;;;;;;;19.63;4.27;;;;;;;;;;5008474;28;20295;-66
2022/10/28 04:58:37;;;;;;;20.20;3.63;;;;;;;;;;5009149;28;20065;-66
2022/10/28 05:01:06;;;;;;;16.35;3.08;;;;;;;;;;5009702;28;20291;-66
2022/10/28 05:03:31;;;;;;;21.75;4.47;;;;;;;;;;5010203;28;20021;-66
2022/10/28 05:05:56;;;;;;;17.10;3.90;;;;;;;;;;5012799;28;20359;-66
2022/10/28 05:08:21;;;;;;;10.90;3.13;;;;;;;;;;5008327;28;20868;-68
2022/10/28 05:10:49;;;;;;;15.27;3.87;;;;;;;;;;5008585;28;20105;-68
2022/10/28 05:13:15;;;;;;;16.63;3.25;;;;;;;;;;5005758;28;20269;-68
2022/10/28 05:15:40;;;;;;;15.73;3.73;;;;;;;;;;5008394;28;20026;-68
2022/10/28 05:18:05;;;;;;;17.73;4.23;;;;;;;;;;5007275;28;20622;-68
2022/10/28 05:20:30;;;;;;;17.52;3.92;;;;;;;;;;5011550;28;20121;-65
2022/10/28 05:22:55;;;;;;;19.73;5.33;;;;;;;;;;5009390;28;20026;-66
2022/10/28 05:25:21;;;;;;;23.45;5.40;;;;;;;;;;5008846;28;20295;-70
2022/10/28 05:27:46;;;;;;;22.80;5.00;;;;;;;;;;5007258;28;20030;-66
2022/10/28 05:30:11;;;;;;;24.17;4.63;;;;;;;;;;5008927;28;20022;-66
2022/10/28 05:32:37;;;;;;;31.65;3.72;;;;;;;;;;5013935;28;20022;-68
2022/10/28 05:35:02;;;;;;;10.60;3.53;;;;;;;;;;5017929;28;20073;-66
2022/10/28 05:37:27;;;;;;;17.45;4.88;;;;;;;;;;5010548;28;20030;-69
2022/10/28 05:39:53;;;;;;;12.75;3.97;;;;;;;;;;5011835;28;20072;-66
2022/10/28 05:42:18;;;;;;;17.00;4.05;;;;;;;;;;5009997;28;20018;-67
2022/10/28 05:44:43;;;;;;;27.80;5.07;;;;;;;;;;5010301;28;20033;-66
2022/10/28 05:47:08;;;;;;;33.30;4.90;;;;;;;;;;5008427;28;20285;-66
2022/10/28 05:49:33;;;;;;;17.65;4.15;;;;;;;;;;5006559;28;20353;-66
2022/10/28 05:51:59;;;;;;;16.37;4.03;;;;;;;;;;5010385;28;20497;-67
2022/10/28 05:54:24;;;;;;;13.57;3.60;;;;;;;;;;5010173;28;20287;-71
2022/10/28 05:56:49;;;;;;;16.70;4.38;;;;;;;;;;5008831;28;20225;-67
2022/10/28 05:59:14;;;;;;;17.07;4.73;;;;;;;;;;5019676;28;20092;-69
2022/10/28 06:01:39;;;;;;;15.47;3.97;;;;;;;;;;5016567;28;20017;-67
2022/10/28 06:04:05;;;;;;;21.80;5.00;;;;;;;;;;5012464;28;20303;-69
2022/10/28 06:06:30;;;;;;;23.02;5.57;;;;;;;;;;5008631;28;20287;-68
2022/10/28 06:08:56;;;;;;;17.92;5.15;;;;;;;;;;5010898;28;20036;-66
2022/10/28 06:11:21;;;;;;;21.67;3.90;;;;;;;;;;5011404;28;20100;-69
2022/10/28 06:13:46;;;;;;;13.87;4.37;;;;;;;;;;5010595;28;20938;-68
2022/10/28 06:16:11;;;;;;;17.97;4.37;;;;;;;;;;5011953;28;20323;-68
2022/10/28 06:18:36;;;;;;;20.70;5.23;;;;;;;;;;5020623;28;20280;-66
2022/10/28 06:21:01;;;;;;;18.63;4.00;;;;;;;;;;4989164;28;20271;-69
2022/10/28 06:23:28;;;;;;;19.10;5.43;;;;;;;;;;5009869;28;20280;-69
2022/10/28 06:25:57;;;;;;;20.75;4.35;;;;;;;;;;5009931;28;20313;-69
2022/10/28 06:28:23;;;;;;;10.02;3.67;;;;;;;;;;5012132;28;20133;-68
2022/10/28 06:30:48;;;;;;;17.00;4.65;;;;;;;;;;5008484;28;20092;-68
2022/10/28 06:33:13;;;;;;;18.65;5.68;;;;;;;;;;5005216;28;20101;-67
2022/10/28 06:35:39;;;;;;;19.48;4.00;;;;;;;;;;5007064;28;20466;-67
2022/10/28 06:38:04;;;;;;;20.57;5.07;;;;;;;;;;5010817;28;20391;-66
2022/10/28 06:40:29;;;;;;;16.80;4.32;;;;;;;;;;5007926;28;20268;-66
2022/10/28 06:43:00;;;;;;;24.63;4.63;;;;;;;;;;5008953;28;20021;-66
2022/10/28 06:45:27;;;;;;;28.00;4.75;;;;;;;;;;5008010;28;20026;-68
2022/10/28 06:48:02;;;;;;;22.02;4.68;;;;;;;;;;5009835;28;20022;-66
2022/10/28 06:50:28;;;;;;;20.67;4.90;;;;;;;;;;5007939;28;20518;-67
2022/10/28 06:52:57;;;;;;;21.75;4.68;;;;;;;;;;5009508;28;20040;-66
2022/10/28 06:55:22;;;;;;;11.63;3.70;;;;;;;;;;5008327;28;20057;-68
2022/10/28 06:57:47;;;;;;;15.15;4.38;;;;;;;;;;5008607;28;20053;-66
2022/10/28 07:00:13;;;;;;;17.42;5.03;;;;;;;;;;5009673;28;20402;-67
2022/10/28 07:02:38;;;;;;;25.50;5.20;;;;;;;;;;5007530;28;20042;-69
2022/10/28 07:05:03;;;;;;;14.30;3.60;;;;;;;;;;5009899;28;20025;-68
2022/10/28 07:07:29;;;;;;;13.82;4.43;;;;;;;;;;5011026;28;20603;-67
2022/10/28 07:09:54;;;;;;;22.03;4.27;;;;;;;;;;5010335;28;20098;-67
2022/10/28 07:12:19;;;;;;;21.40;4.70;;;;;;;;;;5008089;28;20352;-69
2022/10/28 07:14:44;;;;;;;22.10;4.87;;;;;;;;;;5009912;28;20104;-67
2022/10/28 07:17:09;;;;;;;20.23;5.07;;;;;;;;;;5009697;28;20418;-68
2022/10/28 07:19:34;;;;;;;25.57;4.87;;;;;;;;;;5007109;28;20280;-68
2022/10/28 07:22:00;;;;;;;16.33;4.73;;;;;;;;;;5008902;28;20028;-68
2022/10/28 07:24:25;;;;;;;13.87;3.73;;;;;;;;;;5008805;28;20284;-68
2022/10/28 07:26:50;;;;;;;18.00;3.90;;;;;;;;;;5011019;28;20336;-68
2022/10/28 07:29:15;;;;;;;18.40;3.95;;;;;;;;;;5010560;28;20030;-68
2022/10/28 07:31:40;;;;;;;25.33;2.95;;;;;;;;;;5004442;28;20113;-67
2022/10/28 07:34:06;;;;;;;14.73;4.13;;;;;;;;;;5004126;28;20088;-68
2022/10/28 07:36:31;;;;;;;16.33;4.10;;;;;;;;;;5006960;28;20274;-68
2022/10/28 07:38:56;;;;;;;11.93;3.63;;;;;;;;;;5007565;28;20029;-68
2022/10/28 07:41:21;;;;;;;23.45;5.40;;;;;;;;;;5007418;28;20301;-69
2022/10/28 07:43:47;;;;;;;15.53;3.57;;;;;;;;;;5010651;28;20025;-68
2022/10/28 07:46:12;;;;;;;16.05;4.00;;;;;;;;;;5008013;28;20356;-68
2022/10/28 07:48:38;;;;;;;18.77;4.22;;;;;;;;;;5006626;28;20382;-69
2022/10/28 07:51:04;;;;;;;23.13;3.92;;;;;;;;;;5009756;28;20022;-68
2022/10/28 07:53:29;;;;;;;17.98;3.58;;;;;;;;;;5008218;28;20356;-69
2022/10/28 07:55:56;;;;;;;22.60;4.28;;;;;;;;;;5009493;28;20014;-68
2022/10/28 07:58:21;;;;;;;27.77;4.57;;;;;;;;;;5006484;28;20010;-68
2022/10/28 08:00:47;;;;;;;14.20;3.73;;;;;;;;;;5002800;28;20379;-70
2022/10/28 08:03:12;;;;;;;17.90;4.43;;;;;;;;;;5008892;28;20041;-68
2022/10/28 08:05:37;;;;;;;20.47;4.40;;;;;;;;;;5007153;28;20486;-68
2022/10/28 08:08:02;;;;;;;23.73;4.10;;;;;;;;;;5008635;28;20109;-68
2022/10/28 08:10:28;;;;;;;14.27;3.33;;;;;;;;;;5010377;28;20030;-67
2022/10/28 08:12:54;;;;;;;42.93;4.97;;;;;;;;;;5009383;28;20296;-69
2022/10/28 08:15:22;;;;;;;16.85;3.95;;;;;;;;;;5006762;28;20665;-68
2022/10/28 08:17:49;;;;;;;19.80;3.40;;;;;;;;;;5003451;28;20017;-68
2022/10/28 08:20:15;;;;;;;18.17;4.35;;;;;;;;;;5040296;23;20042;-68
2022/10/28 08:22:40;;;;;;;20.03;4.03;;;;;;;;;;5025112;28;20474;-68
2022/10/28 08:25:05;;;;;;;20.60;4.17;;;;;;;;;;5022279;28;20279;-68
2022/10/28 08:27:30;;;;;;;19.05;4.38;;;;;;;;;;5027168;28;20318;-68
2022/10/28 08:29:55;;;;;;;16.27;3.67;;;;;;;;;;5025598;28;20029;-68
2022/10/28 08:32:21;;;;;;;15.93;5.55;;;;;;;;;;5027584;28;20017;-69
2022/10/28 08:34:46;;;;;;;20.57;4.00;;;;;;;;;;5028548;28;20025;-68
2022/10/28 08:37:11;;;;;;;13.43;3.77;;;;;;;;;;5029779;28;20427;-68
2022/10/28 08:39:36;;;;;;;11.93;3.70;;;;;;;;;;5027938;28;20348;-68
2022/10/28 08:42:01;;;;;;;14.93;3.47;;;;;;;;;;5028880;28;20010;-68
2022/10/28 08:44:45;;;;;;;23.53;4.03;;;;;;;;;;5027591;28;20075;-68
2022/10/28 08:47:16;;;;;;;23.90;3.83;;;;;;;;;;5026133;28;20244;-69
2022/10/28 08:49:42;;;;;;;10.88;3.08;;;;;;;;;;5026581;28;20101;-68
2022/10/28 08:52:23;;;;;;;15.13;3.15;;;;;;;;;;5028642;28;20617;-68
2022/10/28 08:54:51;;;;;;;18.08;3.88;;;;;;;;;;5028977;28;20013;-68
2022/10/28 08:57:19;;;;;;;12.77;3.60;;;;;;;;;;5028417;28;20021;-68
2022/10/28 08:59:46;;;;;;;18.63;3.83;;;;;;;;;;5027120;28;20022;-68
2022/10/28 09:02:20;;;;;;;23.08;4.60;;;;;;;;;;5031111;28;20056;-68
2022/10/28 09:04:46;;;;;;;17.23;3.40;;;;;;;;;;5028822;28;20029;-68
2022/10/28 09:07:16;;;;;;;19.42;3.22;;;;;;;;;;5028724;28;20116;-68
2022/10/28 09:09:42;;;;;;;14.43;4.03;;;;;;;;;;5033369;28;20440;-69
2022/10/28 09:12:15;;;;;;;18.60;3.65;;;;;;;;;;5033557;28;20056;-68
2022/10/28 09:14:51;;;;;;;17.33;3.55;;;;;;;;;;5030660;28;20021;-68
2022/10/28 09:17:19;;;;;;;19.95;3.75;;;;;;;;;;5034599;28;20105;-69
2022/10/28 09:19:47;;;;;;;6.95;2.42;;;;;;;;;;5031669;28;20033;-68
2022/10/28 09:22:31;;;;;;;24.38;3.60;;;;;;;;;;5029884;28;20021;-68
2022/10/28 09:25:05;;;;;;;14.50;5.53;;;;;;;;;;5031720;28;20438;-68
2022/10/28 09:27:36;;;;;;;12.85;3.55;;;;;;;;;;5029084;28;20493;-68
2022/10/28 09:30:20;;;;;;;18.15;3.95;;;;;;;;;;5026263;28;20393;-68
2022/10/28 09:33:03;;;;;;;20.02;3.95;;;;;;;;;;5028261;28;20025;-68
2022/10/28 09:35:30;;;;;;;19.70;4.18;;;;;;;;;;5035403;28;20017;-69
2022/10/28 09:37:59;;;;;;;15.07;2.47;;;;;;;;;;5032280;28;20506;-69
2022/10/28 09:40:26;;;;;;;12.50;2.80;;;;;;;;;;5032171;28;20386;-69
2022/10/28 09:42:51;;;;;;;28.30;3.78;;;;;;;;;;5029475;28;20021;-68
2022/10/28 09:45:22;;;;;;;10.02;3.45;;;;;;;;;;5028411;28;20488;-68
2022/10/28 09:47:55;;;;;;;8.27;2.15;;;;;;;;;;5031283;28;20025;-68
2022/10/28 09:50:24;;;;;;;15.88;3.58;;;;;;;;;;5031731;28;20477;-69
2022/10/28 09:53:03;;;;;;;15.10;3.28;;;;;;;;;;5028902;28;20025;-68
2022/10/28 09:55:28;;;;;;;6.20;2.67;;;;;;;;;;5026035;28;20036;-68
2022/10/28 09:57:54;;;;;;;20.92;2.90;;;;;;;;;;5027803;28;20017;-68
2022/10/28 10:00:19;;;;;;;16.33;4.13;;;;;;;;;;5027781;28;20021;-68
2022/10/28 10:02:44;;;;;;;22.52;3.72;;;;;;;;;;5029720;28;20263;-69
2022/10/28 10:05:13;;;;;;;12.48;4.32;;;;;;;;;;5031948;28;20032;-68
2022/10/28 10:07:53;;;;;;;9.40;3.00;;;;;;;;;;5031083;28;20146;-68
2022/10/28 10:10:23;;;;;;;7.38;2.20;;;;;;;;;;5027797;28;20067;-68
2022/10/28 10:12:49;;;;;;;6.32;2.70;;;;;;;;;;5032633;28;20029;-69
2022/10/28 10:15:18;;;;;;;24.00;5.68;;;;;;;;;;5026119;28;20036;-69
2022/10/28 10:17:44;;;;;;;17.73;3.83;;;;;;;;;;5028882;28;20579;-68
2022/10/28 10:20:11;;;;;;;16.67;4.75;;;;;;;;;;5027612;28;20393;-68
2022/10/28 10:22:40;;;;;;;15.82;2.92;;;;;;;;;;5032058;28;20017;-68
2022/10/28 10:25:18;;;;;;;13.85;2.92;;;;;;;;;;5029615;28;20167;-69
2022/10/28 10:28:12;;;;;;;17.25;3.78;;;;;;;;;;5032166;28;20473;-69
2022/10/28 10:30:38;;;;;;;10.05;1.73;;;;;;;;;;5026296;28;20045;-68
2022/10/28 10:33:04;;;;;;;16.98;3.35;;;;;;;;;;5030896;28;20026;-68
2022/10/28 10:35:31;;;;;;;19.83;3.45;;;;;;;;;;5030406;28;20603;-68
2022/10/28 10:37:58;;;;;;;16.80;2.95;;;;;;;;;;5031766;28;20009;-68
2022/10/28 10:40:29;;;;;;;19.55;4.30;;;;;;;;;;5030197;28;21480;-69
2022/10/28 10:42:55;;;;;;;6.85;2.42;;;;;;;;;;5031350;28;20085;-69
2022/10/28 10:45:22;;;;;;;19.60;3.53;;;;;;;;;;5026974;28;20112;-69
2022/10/28 10:47:47;;;;;;;14.45;3.47;;;;;;;;;;5030438;28;20474;-68
2022/10/28 10:50:19;;;;;;;33.05;3.92;;;;;;;;;;5029024;28;20040;-69
2022/10/28 10:52:52;;;;;;;13.68;3.33;;;;;;;;;;5030741;28;20032;-68
2022/10/28 10:55:20;;;;;;;15.35;3.25;;;;;;;;;;5026833;28;20090;-68
2022/10/28 10:57:46;;;;;;;14.30;3.53;;;;;;;;;;5031731;28;20013;-69
2022/10/28 11:00:15;;;;;;;13.50;4.05;;;;;;;;;;5025160;28;20072;-69
2022/10/28 11:02:44;;;;;;;19.65;3.97;;;;;;;;;;5026696;28;20551;-68
2022/10/28 11:05:09;;;;;;;18.55;3.80;;;;;;;;;;5030085;28;20502;-68
2022/10/28 11:07:35;;;;;;;20.65;4.25;;;;;;;;;;5026346;28;20156;-69
2022/10/28 11:10:00;;;;;;;25.92;3.95;;;;;;;;;;5030159;28;20021;-69
2022/10/28 11:12:27;;;;;;;22.83;4.20;;;;;;;;;;5029583;28;20029;-69
2022/10/28 11:14:57;;;;;;;18.35;3.50;;;;;;;;;;5027850;28;20022;-68
2022/10/28 11:17:23;;;;;;;16.05;3.67;;;;;;;;;;5027314;28;20029;-68
2022/10/28 11:19:50;;;;;;;5.63;2.55;;;;;;;;;;5028765;28;20030;-68
2022/10/28 11:22:38;;;;;;;19.60;3.45;;;;;;;;;;5023899;28;20061;-68
2022/10/28 11:25:25;;;;;;;25.55;4.57;;;;;;;;;;4998364;28;20512;-69
2022/10/28 11:27:56;;;;;;;13.85;2.95;;;;;;;;;;5027506;28;20032;-69
2022/10/28 11:30:26;;;;;;;12.88;2.83;;;;;;;;;;5029668;28;20144;-68
2022/10/28 11:33:10;;;;;;;9.97;3.23;;;;;;;;;;5023072;28;20022;-69
2022/10/28 11:35:38;;;;;;;10.23;2.50;;;;;;;;;;5028309;28;20699;-69
2022/10/28 11:38:17;;;;;;;14.70;2.55;;;;;;;;;;5029816;28;20382;-69
2022/10/28 11:40:49;;;;;;;16.85;4.03;;;;;;;;;;5030094;28;20021;-69
2022/10/28 11:43:32;;;;;;;16.88;4.20;;;;;;;;;;5029836;28;20017;-68
2022/10/28 11:46:14;;;;;;;19.90;4.13;;;;;;;;;;5033252;28;20021;-69
2022/10/28 11:48:57;;;;;;;14.85;3.38;;;;;;;;;;5030774;28;20382;-69
2022/10/28 11:51:30;;;;;;;22.30;3.05;;;;;;;;;;5030765;28;20049;-69
2022/10/28 11:54:02;;;;;;;16.75;4.05;;;;;;;;;;5030392;28;20045;-69
2022/10/28 11:56:32;;;;;;;16.63;3.60;;;;;;;;;;5031169;28;20025;-69
2022/10/28 11:58:57;;;;;;;;;;;;;;;;;;5027280;28;20409;-69
2022/10/28 12:01:55;;;;;;;16.73;4.30;;;;;;;;;;5025011;28;19909;-69
2022/10/28 12:04:20;;;;;;;12.50;3.72;;;;;;;;;;5007541;28;20056;-69
2022/10/28 12:07:04;;;;;;;21.10;3.07;;;;;;;;;;5026775;28;20195;-69
2022/10/28 12:09:38;;;;;;;23.27;4.68;;;;;;;;;;5026525;28;20541;-69
2022/10/28 12:12:03;;;;;;;9.25;3.05;;;;;;;;;;5029881;28;20159;-69
2022/10/28 12:14:38;;;;;;;24.57;4.10;;;;;;;;;;5024008;28;20478;-69
2022/10/28 12:17:03;;;;;;;17.80;3.00;;;;;;;;;;5023121;28;20244;-69
2022/10/28 12:19:31;;;;;;;18.58;4.07;;;;;;;;;;5029825;28;20535;-69
2022/10/28 12:22:04;;;;;;;21.77;4.93;;;;;;;;;;5027892;28;20433;-69
2022/10/28 12:24:32;;;;;;;8.88;3.08;;;;;;;;;;5029356;28;20025;-69
2022/10/28 12:26:59;;;;;;;24.40;4.00;;;;;;;;;;5028661;28;20397;-68
2022/10/28 12:29:41;;;;;;;18.33;3.90;;;;;;;;;;5025654;28;20029;-69
2022/10/28 12:32:08;;;;;;;18.20;3.50;;;;;;;;;;5026167;28;20029;-69
2022/10/28 12:34:36;;;;;;;23.65;4.35;;;;;;;;;;5025545;28;20474;-69
2022/10/28 12:37:07;;;;;;;22.08;3.63;;;;;;;;;;5030961;28;20034;-69
2022/10/28 12:39:42;;;;;;;20.17;3.83;;;;;;;;;;5033295;28;20441;-69
2022/10/28 12:42:19;;;;;;;19.63;3.53;;;;;;;;;;5034276;28;20017;-69
2022/10/28 12:44:44;;;;;;;16.98;3.72;;;;;;;;;;5039536;28;20033;-69
2022/10/28 12:47:28;;;;;;;10.55;2.15;;;;;;;;;;5039635;28;20079;-70
2022/10/28 12:49:59;;;;;;;11.15;3.08;;;;;;;;;;5036313;28;20025;-69
2022/10/28 12:52:36;;;;;;;9.65;3.78;;;;;;;;;;5034357;28;20053;-69
2022/10/28 12:55:07;;;;;;;10.68;2.63;;;;;;;;;;5032682;28;20023;-69
2022/10/28 12:57:34;;;;;;;10.10;2.70;;;;;;;;;;5040673;28;20098;-69
2022/10/28 13:00:04;;;;;;;9.40;2.83;;;;;;;;;;5038573;28;20018;-69
2022/10/28 13:02:33;;;;;;;16.30;3.90;;;;;;;;;;5039328;28;20100;-69
2022/10/28 13:04:59;;;;;;;19.13;2.85;;;;;;;;;;5034010;28;20028;-69
2022/10/28 13:07:56;;;;;;;23.90;4.07;;;;;;;;;;5037016;28;20096;-69
2022/10/28 13:10:30;;;;;;;16.75;3.72;;;;;;;;;;5022999;28;20053;-69
2022/10/28 13:12:55;;;;;;;21.42;4.45;;;;;;;;;;5032543;28;20025;-69
2022/10/28 13:15:24;;;;;;;11.75;3.35;;;;;;;;;;5033980;28;20029;-69
2022/10/28 13:18:08;;;;;;;16.63;3.10;;;;;;;;;;5028782;28;20060;-69
2022/10/28 13:20:52;;;;;;;17.08;2.80;;;;;;;;;;5033083;28;20283;-70
2022/10/28 13:23:17;;;;;;;29.98;4.40;;;;;;;;;;5039220;28;20405;-69
2022/10/28 13:25:45;;;;;;;15.20;3.77;;;;;;;;;;5034884;28;20032;-69
2022/10/28 13:28:14;;;;;;;15.50;3.65;;;;;;;;;;5034144;28;20284;-69
2022/10/28 13:30:51;;;;;;;12.33;4.17;;;;;;;;;;5035569;28;20029;-69
2022/10/28 13:33:19;;;;;;;19.70;3.72;;;;;;;;;;5029597;28;20151;-69
2022/10/28 13:35:45;;;;;;;13.45;3.85;;;;;;;;;;5029805;28;20041;-69
2022/10/28 13:38:12;;;;;;;19.17;4.53;;;;;;;;;;5027582;28;20026;-70
2022/10/28 13:40:37;;;;;;;14.13;3.20;;;;;;;;;;5030688;28;20029;-69
2022/10/28 13:43:02;;;;;;;19.03;5.23;;;;;;;;;;5032334;28;20022;-70
2022/10/28 13:45:47;;;;;;;17.83;3.87;;;;;;;;;;5027700;28;20039;-70
2022/10/28 13:48:27;;;;;;;18.92;3.90;;;;;;;;;;5033014;28;20029;-70
2022/10/28 13:51:24;;;;;;;9.93;2.53;;;;;;;;;;5026732;28;20022;-70
2022/10/28 13:53:50;;;;;;;23.38;3.83;;;;;;;;;;5020419;28;20104;-70
2022/10/28 13:56:15;;;;;;;17.60;3.80;;;;;;;;;;5024096;28;20100;-69
2022/10/28 13:58:48;;;;;;;16.10;4.53;;;;;;;;;;5032264;28;20103;-70
2022/10/28 14:01:39;;;;;;;14.13;3.53;;;;;;;;;;5031008;28;20033;-70
2022/10/28 14:04:05;;;;;;;14.02;4.03;;;;;;;;;;5007391;28;20025;-70
2022/10/28 14:06:31;;;;;;;23.20;4.50;;;;;;;;;;5028720;28;20025;-70
2022/10/28 14:08:56;;;;;;;27.40;3.33;;;;;;;;;;5029286;28;20022;-70
2022/10/28 14:11:22;;;;;;;40.63;5.38;;;;;;;;;;5031154;28;20073;-70
2022/10/28 14:13:53;;;;;;;15.02;3.45;;;;;;;;;;5032457;28;20029;-70
2022/10/28 14:16:32;;;;;;;24.73;3.63;;;;;;;;;;5028607;28;20022;-70
2022/10/28 14:19:12;;;;;;;16.55;3.42;;;;;;;;;;5032442;28;20421;-70
2022/10/28 14:21:57;;;;;;;25.80;3.47;;;;;;;;;;5031974;23;20053;-68
2022/10/28 14:24:31;;;;;;;35.05;4.32;;;;;;;;;;5010933;28;20056;-67
2022/10/28 14:27:02;;;;;;;21.02;3.47;;;;;;;;;;5009621;28;20026;-66
2022/10/28 14:29:28;;;;;;;18.60;4.25;;;;;;;;;;5011390;28;20034;-65
2022/10/28 14:31:54;;;;;;;21.38;4.60;;;;;;;;;;5008261;28;20026;-70
2022/10/28 14:34:19;;;;;;;31.67;3.67;;;;;;;;;;5011177;28;20038;-66
2022/10/28 14:37:06;;;;;;;28.65;4.32;;;;;;;;;;5011002;28;20025;-65
2022/10/28 14:39:34;;;;;;;22.23;3.95;;;;;;;;;;5010429;28;20026;-66